createdAt,value
2019-03-04T00:00:00.356Z,4.03
2019-03-04T00:02:46.769Z,4.70
2019-03-04T00:05:32.693Z,4.37
2019-03-04T00:08:21.655Z,4.73
2019-03-04T00:11:10.560Z,4.27
2019-03-04T00:13:56.525Z,3.40
2019-03-04T00:16:42.736Z,5.70
2019-03-04T00:19:28.997Z,4.40
2019-03-04T00:22:14.909Z,4.23
2019-03-04T00:25:01.426Z,3.30
2019-03-04T00:27:47.297Z,5.33
2019-03-04T00:30:33.292Z,5.00
2019-03-04T00:33:21.448Z,7.77
2019-03-04T00:36:07.793Z,4.57
2019-03-04T00:38:54.238Z,6.67
2019-03-04T00:41:40.501Z,4.37
2019-03-04T00:44:26.350Z,5.00
2019-03-04T00:47:13.300Z,4.93
2019-03-04T00:50:02.153Z,7.93
2019-03-04T00:52:48.126Z,5.07
2019-03-04T00:55:34.017Z,4.73
2019-03-04T00:58:20.684Z,5.67
2019-03-04T01:01:06.563Z,5.60
2019-03-04T01:03:52.289Z,6.40
2019-03-04T01:06:38.650Z,5.03
2019-03-04T01:09:24.721Z,5.97
2019-03-04T01:12:10.849Z,4.33
2019-03-04T01:14:57.536Z,6.07
2019-03-04T01:17:43.577Z,3.73
2019-03-04T01:20:29.315Z,5.00
2019-03-04T01:23:15.605Z,9.40
2019-03-04T01:26:01.695Z,2.83
2019-03-04T01:28:47.697Z,3.50
2019-03-04T01:31:35.145Z,5.97
2019-03-04T01:34:21.365Z,5.97
2019-03-04T01:37:10.109Z,5.47
2019-03-04T01:39:56.461Z,4.10
2019-03-04T01:42:42.388Z,5.00
2019-03-04T01:45:28.334Z,4.17
2019-03-04T01:48:14.888Z,8.73
2019-03-04T01:51:01.108Z,7.77
2019-03-04T01:53:46.969Z,3.37
2019-03-04T01:56:33.249Z,6.07
2019-03-04T01:59:19.709Z,6.70
2019-03-04T02:02:05.641Z,3.93
2019-03-04T02:04:52.252Z,3.87
2019-03-04T02:07:38.216Z,4.77
2019-03-04T02:10:24.636Z,5.37
2019-03-04T02:13:10.849Z,3.57
2019-03-04T02:15:57.022Z,5.17
2019-03-04T02:18:42.942Z,3.70
2019-03-04T02:21:29.353Z,3.77
2019-03-04T02:24:18.833Z,5.50
2019-03-04T02:27:05.118Z,6.23
2019-03-04T02:29:51.217Z,4.90
2019-03-04T02:32:37.285Z,5.27
2019-03-04T02:35:23.225Z,4.73
2019-03-04T02:38:09.760Z,3.30
2019-03-04T02:40:55.726Z,4.93
2019-03-04T02:43:41.686Z,3.50
2019-03-04T02:46:27.852Z,4.40
2019-03-04T02:49:13.762Z,3.03
2019-03-04T02:51:59.581Z,3.97
2019-03-04T02:54:45.808Z,2.70
2019-03-04T02:57:32.142Z,2.27
2019-03-04T03:00:18.230Z,2.03
2019-03-04T03:03:05.314Z,3.40
2019-03-04T03:05:51.273Z,3.57
2019-03-04T03:08:37.171Z,4.73
2019-03-04T03:11:23.849Z,6.13
2019-03-04T03:14:09.780Z,2.20
2019-03-04T03:16:55.647Z,2.50
2019-03-04T03:19:41.849Z,5.10
2019-03-04T03:22:27.900Z,3.13
2019-03-04T03:25:16.557Z,2.83
2019-03-04T03:28:03.431Z,3.13
2019-03-04T03:30:49.351Z,1.50
2019-03-04T03:33:35.293Z,2.10
2019-03-04T03:36:21.952Z,1.63
2019-03-04T03:39:08.070Z,2.63
2019-03-04T03:41:57.214Z,2.20
2019-03-04T03:44:43.828Z,2.57
2019-03-04T03:47:29.887Z,1.53
2019-03-04T03:50:17.756Z,2.03
2019-03-04T03:53:04.942Z,2.13
2019-03-04T03:55:51.223Z,2.73
2019-03-04T03:58:37.553Z,1.30
2019-03-04T04:01:24.506Z,1.43
2019-03-04T04:04:10.584Z,1.33
2019-03-04T04:06:56.433Z,2.47
2019-03-04T04:09:42.664Z,2.07
2019-03-04T04:12:28.582Z,2.33
2019-03-04T04:15:14.856Z,4.40
2019-03-04T04:18:01.626Z,1.60
2019-03-04T04:20:47.873Z,1.70
2019-03-04T04:23:33.906Z,2.67
2019-03-04T04:26:22.895Z,1.83
2019-03-04T04:29:12.452Z,2.40
2019-03-04T04:31:58.656Z,3.30
2019-03-04T04:34:44.707Z,3.33
2019-03-04T04:37:30.695Z,2.00
2019-03-04T04:40:16.463Z,2.47
2019-03-04T04:43:02.240Z,2.20
2019-03-04T04:45:48.175Z,2.73
2019-03-04T04:48:34.335Z,2.63
2019-03-04T04:51:20.397Z,2.77
2019-03-04T04:54:06.687Z,1.70
2019-03-04T04:56:53.042Z,2.10
2019-03-04T04:59:38.963Z,4.33
2019-03-04T05:02:24.980Z,1.97
2019-03-04T05:05:12.483Z,1.80
2019-03-04T05:07:58.563Z,2.13
2019-03-04T05:10:44.624Z,2.17
2019-03-04T05:13:31.059Z,1.80
2019-03-04T05:16:17.069Z,2.40
2019-03-04T05:19:03.899Z,2.20
2019-03-04T05:21:50.463Z,2.53
2019-03-04T05:24:36.417Z,2.33
2019-03-04T05:27:22.328Z,1.83
2019-03-04T05:30:11.762Z,3.40
2019-03-04T05:32:57.751Z,1.50
2019-03-04T05:35:43.725Z,1.53
2019-03-04T05:38:30.375Z,1.50
2019-03-04T05:41:16.322Z,1.53
2019-03-04T05:44:02.439Z,1.50
2019-03-04T05:46:48.673Z,1.20
2019-03-04T05:49:34.603Z,1.00
2019-03-04T05:52:20.727Z,2.27
2019-03-04T05:55:08.955Z,1.07
2019-03-04T05:57:55.635Z,2.00
2019-03-04T06:00:42.602Z,1.27
2019-03-04T06:03:28.935Z,1.30
2019-03-04T06:06:15.555Z,1.60
2019-03-04T06:09:01.676Z,1.53
2019-03-04T06:11:47.910Z,1.77
2019-03-04T06:14:34.375Z,1.90
2019-03-04T06:17:20.350Z,1.40
2019-03-04T06:20:06.714Z,1.30
2019-03-04T06:22:52.791Z,2.33
2019-03-04T06:25:39.022Z,1.93
2019-03-04T06:28:25.015Z,3.00
2019-03-04T06:31:11.262Z,2.23
2019-03-04T06:33:57.649Z,4.40
2019-03-04T06:36:58.719Z,1.77
2019-03-04T06:40:02.426Z,4.77
2019-03-04T06:42:50.468Z,2.33
2019-03-04T06:45:36.969Z,3.73
2019-03-04T06:48:29.135Z,2.50
2019-03-04T06:51:29.264Z,1.60
2019-03-04T06:54:53.396Z,2.97
2019-03-04T06:57:42.962Z,2.83
2019-03-04T07:00:49.831Z,7.07
2019-03-04T07:03:42.697Z,5.43
2019-03-04T07:06:32.342Z,4.10
2019-03-04T07:09:19.353Z,3.03
2019-03-04T07:12:05.348Z,2.87
2019-03-04T07:14:51.647Z,3.40
2019-03-04T07:17:39.421Z,1.03
2019-03-04T07:20:25.360Z,2.53
2019-03-04T07:23:11.487Z,3.83
2019-03-04T07:25:57.691Z,1.13
2019-03-04T07:28:43.636Z,0.67
2019-03-04T07:31:29.623Z,2.53
2019-03-04T07:34:18.834Z,0.93
2019-03-04T07:37:04.693Z,0.97
2019-03-04T07:39:50.675Z,0.70
2019-03-04T07:42:36.635Z,0.70
2019-03-04T07:45:22.510Z,2.40
2019-03-04T07:48:10.004Z,1.40
2019-03-04T07:51:01.148Z,3.20
2019-03-04T07:53:47.113Z,1.73
2019-03-04T07:56:33.339Z,3.27
2019-03-04T07:59:21.230Z,1.20
2019-03-04T08:02:09.156Z,1.17
2019-03-04T08:04:58.158Z,2.13
2019-03-04T08:07:49.063Z,3.93
2019-03-04T08:10:54.542Z,3.40
2019-03-04T08:13:44.584Z,4.43
2019-03-04T08:16:31.061Z,3.30
2019-03-04T08:19:17.000Z,1.27
2019-03-04T08:22:02.912Z,1.80
2019-03-04T08:24:49.308Z,5.00
2019-03-04T08:27:43.369Z,2.63
2019-03-04T08:30:29.912Z,2.80
2019-03-04T08:33:15.756Z,5.80
2019-03-04T08:36:01.736Z,3.23
2019-03-04T08:38:47.587Z,2.10
2019-03-04T08:41:36.292Z,3.97
2019-03-04T08:44:22.761Z,5.63
2019-03-04T08:47:09.457Z,2.83
2019-03-04T08:49:58.377Z,2.70
2019-03-04T08:52:45.184Z,3.33
2019-03-04T08:55:34.008Z,5.63
2019-03-04T08:58:20.342Z,2.27
2019-03-04T09:01:08.017Z,4.03
2019-03-04T09:03:54.332Z,1.60
2019-03-04T09:06:41.108Z,2.13
2019-03-04T09:09:26.912Z,4.13
2019-03-04T09:12:15.497Z,4.37
2019-03-04T09:15:02.093Z,5.43
2019-03-04T09:17:48.183Z,6.40
2019-03-04T09:20:35.538Z,3.70
2019-03-04T09:23:21.412Z,4.13
2019-03-04T09:26:09.574Z,2.87
2019-03-04T09:28:55.963Z,4.10
2019-03-04T09:31:41.893Z,4.57
2019-03-04T09:34:27.799Z,4.93
2019-03-04T09:37:15.521Z,4.37
2019-03-04T09:40:01.525Z,3.37
2019-03-04T09:42:47.617Z,4.50
2019-03-04T09:45:38.860Z,2.10
2019-03-04T09:48:22.329Z,7.50
2019-03-04T09:51:11.067Z,4.73
2019-03-04T09:53:57.269Z,8.63
2019-03-04T09:56:43.478Z,3.37
2019-03-04T09:59:29.499Z,4.80
2019-03-04T10:02:22.664Z,4.13
2019-03-04T10:05:46.630Z,6.73
2019-03-04T10:08:46.959Z,5.10
2019-03-04T10:12:14.439Z,6.33
2019-03-04T10:15:20.297Z,3.33
2019-03-04T10:18:25.599Z,4.03
2019-03-04T10:21:35.974Z,2.53
2019-03-04T10:25:17.767Z,6.77
2019-03-04T10:28:31.919Z,5.00
2019-03-04T10:31:54.136Z,5.70
2019-03-04T10:35:14.399Z,6.77
2019-03-04T10:38:43.756Z,4.63
2019-03-04T10:41:44.497Z,5.47
2019-03-04T10:45:03.357Z,8.47
2019-03-04T10:47:49.748Z,5.20
2019-03-04T10:50:36.083Z,5.83
2019-03-04T10:53:22.361Z,10.03
2019-03-04T10:56:08.666Z,9.23
2019-03-04T10:58:54.563Z,7.93
2019-03-04T11:01:40.784Z,6.77
2019-03-04T11:04:29.327Z,7.50
2019-03-04T11:07:17.348Z,7.03
2019-03-04T11:10:03.771Z,6.67
2019-03-04T11:12:54.423Z,6.90
2019-03-04T11:15:40.723Z,4.77
2019-03-04T11:18:26.800Z,5.00
2019-03-04T11:21:12.983Z,7.77
2019-03-04T11:24:00.922Z,8.97
2019-03-04T11:26:50.087Z,11.97
2019-03-04T11:29:36.040Z,7.23
2019-03-04T11:32:22.524Z,5.27
2019-03-04T11:35:10.847Z,5.50
2019-03-04T11:37:57.272Z,7.07
2019-03-04T11:40:44.220Z,4.20
2019-03-04T11:43:30.526Z,3.97
2019-03-04T11:46:18.439Z,6.83
2019-03-04T11:49:04.504Z,8.53
2019-03-04T11:51:50.343Z,8.10
2019-03-04T11:54:36.260Z,4.47
2019-03-04T11:57:22.468Z,3.77
2019-03-04T12:00:12.943Z,2.40
2019-03-04T12:02:58.964Z,1.50
2019-03-04T12:05:45.069Z,5.50
2019-03-04T12:08:31.568Z,3.10
2019-03-04T12:11:18.017Z,1.50
2019-03-04T12:14:04.600Z,2.73
2019-03-04T12:16:50.572Z,1.83
2019-03-04T12:19:36.801Z,2.50
2019-03-04T12:22:22.748Z,2.67
2019-03-04T12:25:11.284Z,2.03
2019-03-04T12:27:57.309Z,1.13
2019-03-04T12:30:43.765Z,1.80
2019-03-04T12:33:31.693Z,1.60
2019-03-04T12:36:17.762Z,1.10
2019-03-04T12:39:11.828Z,0.90
2019-03-04T12:41:59.156Z,1.67
2019-03-04T12:44:45.772Z,1.47
2019-03-04T12:47:32.552Z,1.73
2019-03-04T12:50:20.845Z,4.17
2019-03-04T12:53:07.191Z,1.93
2019-03-04T12:55:53.477Z,1.60
2019-03-04T12:58:40.401Z,1.93
2019-03-04T13:01:27.537Z,2.00
2019-03-04T13:04:14.576Z,1.83
2019-03-04T13:07:00.734Z,2.57
2019-03-04T13:09:46.899Z,2.20
2019-03-04T13:12:36.885Z,2.17
2019-03-04T13:15:23.648Z,2.17
2019-03-04T13:18:12.651Z,3.27
2019-03-04T13:21:04.646Z,2.63
2019-03-04T13:23:50.829Z,2.10
2019-03-04T13:26:36.756Z,2.30
2019-03-04T13:29:22.904Z,2.50
2019-03-04T13:32:08.874Z,2.93
2019-03-04T13:34:54.730Z,2.20
2019-03-04T13:37:44.239Z,7.07
2019-03-04T13:40:33.203Z,2.00
2019-03-04T13:43:19.330Z,4.40
2019-03-04T13:46:06.044Z,2.77
2019-03-04T13:48:55.686Z,4.10
2019-03-04T13:51:42.206Z,2.70
2019-03-04T13:54:28.966Z,3.60
2019-03-04T13:57:14.818Z,9.10
2019-03-04T14:00:03.573Z,5.30
2019-03-04T14:02:50.360Z,3.90
2019-03-04T14:05:36.519Z,4.47
2019-03-04T14:08:27.675Z,3.10
2019-03-04T14:11:14.277Z,2.73
2019-03-04T14:14:02.148Z,4.87
2019-03-04T14:16:48.201Z,3.77
2019-03-04T14:19:34.484Z,8.57
2019-03-04T14:22:20.414Z,3.73
2019-03-04T14:25:08.197Z,5.80
2019-03-04T14:27:55.673Z,7.60
2019-03-04T14:30:41.897Z,5.67
2019-03-04T14:33:28.049Z,5.53
2019-03-04T14:36:16.481Z,3.27
2019-03-04T14:39:03.618Z,5.60
2019-03-04T14:41:49.853Z,6.10
2019-03-04T14:44:38.601Z,4.23
2019-03-04T14:47:25.001Z,7.90
2019-03-04T14:50:13.256Z,2.80
2019-03-04T14:52:59.521Z,2.83
2019-03-04T14:55:45.644Z,4.30
2019-03-04T14:58:34.117Z,5.30
2019-03-04T15:01:20.438Z,11.13
2019-03-04T15:04:08.361Z,9.97
2019-03-04T15:06:54.933Z,5.73
2019-03-04T15:09:49.045Z,4.20
2019-03-04T15:12:30.974Z,6.43
2019-03-04T15:15:18.520Z,9.63
2019-03-04T15:18:05.229Z,7.50
2019-03-04T15:20:54.153Z,6.27
2019-03-04T15:23:40.728Z,6.97
2019-03-04T15:26:26.920Z,3.33
2019-03-04T15:29:12.909Z,7.77
2019-03-04T15:31:59.537Z,4.90
2019-03-04T15:34:46.270Z,4.87
2019-03-04T15:37:33.674Z,6.17
2019-03-04T15:40:20.157Z,9.60
2019-03-04T15:43:06.254Z,9.00
2019-03-04T15:45:53.078Z,7.33
2019-03-04T15:48:41.804Z,8.37
2019-03-04T15:51:28.276Z,6.20
2019-03-04T15:54:14.572Z,8.70
2019-03-04T15:57:02.154Z,8.77
2019-03-04T15:59:48.537Z,7.07
2019-03-04T16:02:37.028Z,7.23
2019-03-04T16:05:23.373Z,9.43
2019-03-04T16:08:17.717Z,5.37
2019-03-04T16:11:12.216Z,6.90
2019-03-04T16:13:59.098Z,7.90
2019-03-04T16:16:45.356Z,10.73
2019-03-04T16:19:31.916Z,6.07
2019-03-04T16:22:17.962Z,9.00
2019-03-04T16:25:06.489Z,9.07
2019-03-04T16:28:00.200Z,12.20
2019-03-04T16:30:50.046Z,9.70
2019-03-04T16:33:36.394Z,12.40
2019-03-04T16:36:23.164Z,7.43
2019-03-04T16:39:16.870Z,5.90
2019-03-04T16:42:05.728Z,10.17
2019-03-04T16:44:52.007Z,5.80
2019-03-04T16:47:38.192Z,9.27
2019-03-04T16:50:24.326Z,9.63
2019-03-04T16:53:11.595Z,10.97
2019-03-04T16:55:58.166Z,10.63
2019-03-04T16:58:45.133Z,4.77
2019-03-04T17:01:31.639Z,10.00
2019-03-04T17:04:17.689Z,9.63
2019-03-04T17:07:06.923Z,7.80
2019-03-04T17:09:52.963Z,5.50
2019-03-04T17:12:38.994Z,5.77
2019-03-04T17:15:25.775Z,6.97
2019-03-04T17:18:12.248Z,8.13
2019-03-04T17:20:58.112Z,9.37
2019-03-04T17:23:44.574Z,6.73
2019-03-04T17:26:30.531Z,8.00
2019-03-04T17:29:18.204Z,6.97
2019-03-04T17:32:08.556Z,11.60
2019-03-04T17:34:54.763Z,10.87
2019-03-04T17:37:40.885Z,9.10
2019-03-04T17:40:27.363Z,9.90
2019-03-04T17:43:15.479Z,6.60
2019-03-04T17:46:03.573Z,5.77
2019-03-04T17:48:50.169Z,9.27
2019-03-04T17:51:36.479Z,5.83
2019-03-04T17:54:24.276Z,9.00
2019-03-04T17:57:10.747Z,6.33
2019-03-04T17:59:59.763Z,8.13
2019-03-04T18:02:46.583Z,7.80
2019-03-04T18:05:32.904Z,7.27
2019-03-04T18:08:19.079Z,7.73
2019-03-04T18:11:05.647Z,9.17
2019-03-04T18:13:51.724Z,14.20
2019-03-04T18:16:41.099Z,5.17
2019-03-04T18:19:27.843Z,5.10
2019-03-04T18:22:14.380Z,7.40
2019-03-04T18:25:00.574Z,11.17
2019-03-04T18:28:01.557Z,4.67
2019-03-04T18:31:12.749Z,3.47
2019-03-04T18:34:50.635Z,8.23
2019-03-04T18:38:09.822Z,6.83
2019-03-04T18:41:25.006Z,12.57
2019-03-04T18:45:01.373Z,7.83
2019-03-04T18:48:20.047Z,6.73
2019-03-04T18:51:06.351Z,4.73
2019-03-04T18:54:00.580Z,4.57
2019-03-04T18:56:47.561Z,5.47
2019-03-04T18:59:34.193Z,10.33
2019-03-04T19:02:27.766Z,4.60
2019-03-04T19:05:14.593Z,11.90
2019-03-04T19:08:02.647Z,10.60
2019-03-04T19:10:49.371Z,6.47
2019-03-04T19:13:37.469Z,5.63
2019-03-04T19:16:30.201Z,9.63
2019-03-04T19:19:17.178Z,6.57
2019-03-04T19:22:04.287Z,4.63
2019-03-04T19:24:52.739Z,7.53
2019-03-04T19:27:43.793Z,5.77
2019-03-04T19:30:30.778Z,8.60
2019-03-04T19:33:17.078Z,5.43
2019-03-04T19:36:06.164Z,6.70
2019-03-04T19:38:55.297Z,6.33
2019-03-04T19:41:44.829Z,6.97
2019-03-04T19:44:31.788Z,6.13
2019-03-04T19:47:19.764Z,4.23
2019-03-04T19:50:07.098Z,6.20
2019-03-04T19:52:55.132Z,7.27
2019-03-04T19:55:41.501Z,10.67
2019-03-04T19:58:27.490Z,4.67
2019-03-04T20:01:14.915Z,4.67
2019-03-04T20:04:08.984Z,8.03
2019-03-04T20:06:57.524Z,10.27
2019-03-04T20:09:44.438Z,4.87
2019-03-04T20:12:33.405Z,7.33
2019-03-04T20:15:21.120Z,8.30
2019-03-04T20:18:07.788Z,6.17
2019-03-04T20:20:54.250Z,6.63
2019-03-04T20:23:40.873Z,7.10
2019-03-04T20:26:31.308Z,4.90
2019-03-04T20:29:18.009Z,8.33
2019-03-04T20:32:06.714Z,8.30
2019-03-04T20:34:56.258Z,7.07
2019-03-04T20:37:49.197Z,4.87
2019-03-04T20:40:35.601Z,7.00
2019-03-04T20:43:28.963Z,4.30
2019-03-04T20:46:31.020Z,5.90
2019-03-04T20:49:26.513Z,7.77
2019-03-04T20:52:14.729Z,7.87
2019-03-04T20:55:00.668Z,8.73
2019-03-04T20:57:47.250Z,7.47
2019-03-04T21:00:34.369Z,8.43
2019-03-04T21:03:22.965Z,6.43
2019-03-04T21:06:09.690Z,9.60
2019-03-04T21:08:56.260Z,9.03
2019-03-04T21:11:45.656Z,4.33
2019-03-04T21:14:32.295Z,11.80
2019-03-04T21:17:18.531Z,7.20
2019-03-04T21:20:06.065Z,6.67
2019-03-04T21:22:53.423Z,9.57
2019-03-04T21:26:11.048Z,5.23
2019-03-04T21:29:54.231Z,12.73
2019-03-04T21:32:50.330Z,8.53
2019-03-04T21:36:15.857Z,9.37
2019-03-04T21:39:01.381Z,9.10
2019-03-04T21:42:16.037Z,5.93
2019-03-04T21:45:48.470Z,8.20
2019-03-04T21:48:44.813Z,7.17
2019-03-04T21:52:19.495Z,7.60
2019-03-04T21:54:56.299Z,6.00
2019-03-04T21:57:45.824Z,8.53
2019-03-04T22:00:38.550Z,8.63
2019-03-04T22:03:27.742Z,4.37
2019-03-04T22:06:13.998Z,6.77
2019-03-04T22:08:59.981Z,6.27
2019-03-04T22:11:46.012Z,6.63
2019-03-04T22:14:35.028Z,8.53
2019-03-04T22:17:21.266Z,10.70
2019-03-04T22:20:08.423Z,10.27
2019-03-04T22:22:54.544Z,4.77
2019-03-04T22:25:43.210Z,6.33
2019-03-04T22:28:31.040Z,6.83
2019-03-04T22:31:20.513Z,8.43
2019-03-04T22:34:06.481Z,7.57
2019-03-04T22:36:52.759Z,9.23
2019-03-04T22:39:38.886Z,9.07
2019-03-04T22:42:24.987Z,5.70
2019-03-04T22:45:15.530Z,6.17
2019-03-04T22:48:01.584Z,5.97
2019-03-04T22:50:47.568Z,7.20
2019-03-04T22:53:34.476Z,6.10
2019-03-04T22:56:20.377Z,8.97
2019-03-04T22:59:06.765Z,12.47
2019-03-04T23:02:00.049Z,10.33
2019-03-04T23:04:58.656Z,8.53
2019-03-04T23:07:49.930Z,11.77
2019-03-04T23:10:41.889Z,13.70
2019-03-04T23:14:01.350Z,12.50
2019-03-04T23:16:47.488Z,15.00
2019-03-04T23:19:33.556Z,15.23
2019-03-04T23:22:20.255Z,13.77
2019-03-04T23:25:07.626Z,12.67
2019-03-04T23:27:53.620Z,14.50
2019-03-04T23:30:41.054Z,19.37
2019-03-04T23:33:26.984Z,12.90
2019-03-04T23:36:12.976Z,13.73
2019-03-04T23:38:59.220Z,16.93
2019-03-04T23:41:45.203Z,16.20
2019-03-04T23:44:31.272Z,12.77
2019-03-04T23:47:18.513Z,14.53
2019-03-04T23:50:20.991Z,15.70
2019-03-04T23:53:07.604Z,12.07
2019-03-04T23:55:53.544Z,12.07
2019-03-04T23:58:39.643Z,20.27
